Bayamo, Cuba
Current Conditions -  °F | °C
As of 1:09 AM on Sunday 26 Oct 2014 (Local Time) from MUHG Reporting Station
Light Rain Light Rain  
Wind Chill: 72°   Ceiling: 8000
Heat Index: 72°   Visibility: 0.93mi
Dew Point: 70°   Wind: 6mph
Humidity: 94%   Direction: 300°WNW
Pressure: 29.85"   Gusts: NA
Location:  20.38°N, 76.65°W
Report Text: MUHG 260509Z 30005KT 1500 -RA FEW025 OVC080 22/21 Q1011
Loading
Personal Weather Stations






























Interactive Weather Map
Tropical Storm Tracking
New forecast layout! Learn more

10-Day Weather Forecast

Advertisements
Track Severe Weather on mobile